Jiu Hua San — 9VBK2 — position and weather

sailwx.info

Track history (hours):
 
Tides and Currents Weather Stations Pressure Air Temp Water Temp Dewpoint Dewpoint Depression Visibility Wind Speed Wind Dir Waves Ship Positions

Jiu Hua San

Last reported at 2016-Apr-12 23:05 UTC. Time now 2016-May-02 01:22 UTC.
Position N 02°10' E 102°00'.
Warning: this ship's position is 19 days out of date.

Length 333 m; draft 11.6 m.

Type: Ship. MMSI: 565914000.

Date/timePositionNaut miles runAvg speedWind from/ knotsBaromVisibWave heightAir tempDewpointWater temp
2016-Apr-12 23:05N 02°10' E 102°00'915.4
2016-Apr-12 22:32N 02°05' E 102°07'1515.4
2016-Apr-12 21:33N 01°55' E 102°18'1515.1
2016-Apr-12 20:33N 01°48' E 102°32'1514.4
2016-Apr-12 19:31N 01°42' E 102°46'4413.3
2016-Apr-12 16:12N 01°17' E 103°22'914.1
2016-Apr-12 15:33N 01°13' E 103°30'5 1.1
2016-Apr-12 11:05N 01°14' E 103°35'0 0.1
2016-Apr-12 10:26N 01°14' E 103°35'0 0.1
2016-Apr-12 09:29N 01°14' E 103°35'0 0.1
2016-Apr-12 08:29N 01°14' E 103°35'0 0.1
2016-Apr-12 07:32N 01°14' E 103°35'0 0.0
2016-Apr-12 06:23N 01°14' E 103°35'0 0.0
2016-Apr-12 05:32N 01°14' E 103°35'0 0.0
2016-Apr-12 04:33N 01°14' E 103°35'0 0.0
2016-Apr-12 03:33N 01°14' E 103°35'0 0.2
2016-Apr-12 02:32N 01°14' E 103°35'0 0.1
2016-Apr-12 01:33N 01°14' E 103°35'0 0.0
2016-Apr-12 00:33N 01°14' E 103°35'0 0.3
2016-Apr-11 23:33N 01°14' E 103°35'2 2.2
2016-Apr-11 22:33N 01°12' E 103°36'5 4.7
2016-Apr-11 21:33N 01°10' E 103°41'9 9.4
2016-Apr-11 20:33N 01°11' E 103°50'1111.1
2016-Apr-11 19:33N 01°15' E 104°00'1210.8
2016-Apr-11 18:29N 01°17' E 104°12'  
2016-Apr-09 07:11N 14°58' E 109°57'  
Track history (hours):
 
Tides and Currents Weather Stations Pressure Air Temp Water Temp Dewpoint Dewpoint Depression Visibility Wind Speed Wind Dir Waves Ship Positions

Jiu Hua San

Last reported at 2016-Apr-12 23:05 UTC. Time now 2016-May-02 01:22 UTC.
Position N 02°10' E 102°00'.
Warning: this ship's position is 19 days out of date.

Length 333 m; draft 11.6 m.

Type: Ship. MMSI: 565914000.

Date/timePositionNaut miles runAvg speedWind from/ knotsBaromVisibWave heightAir tempDewpointWater temp
2016-Apr-12 23:05N 02°10' E 102°00'915.4
2016-Apr-12 22:32N 02°05' E 102°07'1515.4
2016-Apr-12 21:33N 01°55' E 102°18'1515.1
2016-Apr-12 20:33N 01°48' E 102°32'1514.4
2016-Apr-12 19:31N 01°42' E 102°46'4413.3
2016-Apr-12 16:12N 01°17' E 103°22'914.1
2016-Apr-12 15:33N 01°13' E 103°30'5 1.1
2016-Apr-12 11:05N 01°14' E 103°35'0 0.1
2016-Apr-12 10:26N 01°14' E 103°35'0 0.1
2016-Apr-12 09:29N 01°14' E 103°35'0 0.1
2016-Apr-12 08:29N 01°14' E 103°35'0 0.1
2016-Apr-12 07:32N 01°14' E 103°35'0 0.0
2016-Apr-12 06:23N 01°14' E 103°35'0 0.0
2016-Apr-12 05:32N 01°14' E 103°35'0 0.0
2016-Apr-12 04:33N 01°14' E 103°35'0 0.0
2016-Apr-12 03:33N 01°14' E 103°35'0 0.2
2016-Apr-12 02:32N 01°14' E 103°35'0 0.1
2016-Apr-12 01:33N 01°14' E 103°35'0 0.0
2016-Apr-12 00:33N 01°14' E 103°35'0 0.3
2016-Apr-11 23:33N 01°14' E 103°35'2 2.2
2016-Apr-11 22:33N 01°12' E 103°36'5 4.7
2016-Apr-11 21:33N 01°10' E 103°41'9 9.4
2016-Apr-11 20:33N 01°11' E 103°50'1111.1
2016-Apr-11 19:33N 01°15' E 104°00'1210.8
2016-Apr-11 18:29N 01°17' E 104°12'  
2016-Apr-09 07:11N 14°58' E 109°57'  

Dump ship's entire track history